Time;durP1;ratioP1;P1;durP2;ratioP2;P2;SDS_P1;SDS_P2;PMS_P1;PMS_P2;Temp;Humidity;BMP_temperature;BMP_pressure;BME280_temperature;BME280_humidity;BME280_pressure;Samples;Min_cycle;Max_cycle;Signal;HPM_P1;HPM_P2
2022/08/29 00:02:14;;;;;;;4.95;2.50;;;;;;;20.34;46.88;102085.47;5046754;28;20046;-62
2022/08/29 00:04:41;;;;;;;5.03;2.40;;;;;;;20.40;47.00;102104.44;5046820;28;20049;-62
2022/08/29 00:07:09;;;;;;;4.28;2.10;;;;;;;20.40;47.02;102106.34;5047060;28;20053;-62
2022/08/29 00:09:37;;;;;;;6.70;3.00;;;;;;;20.37;47.19;102096.72;5046823;28;20041;-62
2022/08/29 00:12:06;;;;;;;7.03;2.85;;;;;;;20.37;47.31;102096.72;5027373;28;20093;-62
2022/08/29 00:14:35;;;;;;;6.97;2.35;;;;;;;20.36;47.06;102099.72;5027191;28;20050;-62
2022/08/29 00:17:03;;;;;;;6.43;3.40;;;;;;;20.35;47.20;102092.59;5042515;28;20053;-62
2022/08/29 00:19:31;;;;;;;5.05;2.33;;;;;;;20.32;47.27;102093.94;5046209;28;20046;-62
2022/08/29 00:21:58;;;;;;;5.40;2.15;;;;;;;20.32;47.24;102093.09;5046933;28;20049;-62
2022/08/29 00:24:26;;;;;;;5.30;2.83;;;;;;;20.31;47.34;102096.91;5046752;28;20112;-62
2022/08/29 00:26:54;;;;;;;8.02;2.47;;;;;;;20.29;47.35;102094.44;5030026;28;20046;-63
2022/08/29 00:29:22;;;;;;;4.68;2.30;;;;;;;20.29;47.26;102093.63;5026912;28;20050;-62
2022/08/29 00:31:51;;;;;;;4.10;2.17;;;;;;;20.26;47.28;102094.97;5027104;28;20179;-62
2022/08/29 00:34:19;;;;;;;4.75;2.65;;;;;;;20.27;47.48;102104.81;5026845;28;20069;-62
2022/08/29 00:36:46;;;;;;;7.47;2.55;;;;;;;20.25;47.34;102104.22;5026591;28;20467;-62
2022/08/29 00:39:16;;;;;;;6.05;2.40;;;;;;;20.25;47.59;102106.13;5026403;28;20507;-62
2022/08/29 00:41:45;;;;;;;7.25;2.70;;;;;;;20.21;47.54;102102.25;5026863;28;20057;-62
2022/08/29 00:44:13;;;;;;;9.85;2.72;;;;;;;20.24;47.36;102104.47;5026861;28;20061;-62
2022/08/29 00:46:49;;;;;;;4.78;2.25;;;;;;;20.22;47.41;102110.19;5026314;28;20054;-62
2022/08/29 00:49:28;;;;;;;5.82;2.30;;;;;;;20.21;47.66;102105.00;5026300;28;20084;-62
2022/08/29 00:52:00;;;;;;;7.30;2.00;;;;;;;20.18;47.49;102102.78;5026708;28;20450;-62
2022/08/29 00:54:28;;;;;;;6.35;2.75;;;;;;;20.19;47.49;102099.78;5026330;28;20058;-62
2022/08/29 00:56:56;;;;;;;4.55;2.10;;;;;;;20.18;47.80;102106.34;5026649;28;20381;-62
2022/08/29 00:59:30;;;;;;;3.15;2.00;;;;;;;20.17;47.68;102101.13;5026466;28;20049;-62
2022/08/29 01:01:58;;;;;;;7.50;2.63;;;;;;;20.15;47.80;102098.66;5026320;28;20057;-62
2022/08/29 01:04:27;;;;;;;5.35;2.25;;;;;;;20.14;47.78;102099.72;5026369;28;20050;-62
2022/08/29 01:06:55;;;;;;;5.43;2.40;;;;;;;20.12;47.91;102099.16;5026112;28;20050;-62
2022/08/29 01:09:24;;;;;;;5.20;2.55;;;;;;;20.05;47.87;102093.91;5040718;28;20096;-62
2022/08/29 01:14:40;;;;;;;6.35;2.75;;;;;;;20.10;47.87;102113.06;5041301;28;20057;-62
2022/08/29 01:17:10;;;;;;;5.25;2.47;;;;;;;20.08;47.87;102109.75;5025701;28;20056;-62
2022/08/29 01:19:45;;;;;;;9.40;2.63;;;;;;;20.06;47.75;102103.72;5026045;28;20069;-62
2022/08/29 01:22:22;;;;;;;6.68;2.90;;;;;;;20.03;47.88;102109.69;5026192;28;20081;-62
2022/08/29 01:24:53;;;;;;;5.78;2.00;;;;;;;20.04;48.00;102108.63;5025926;28;20054;-62
2022/08/29 01:27:23;;;;;;;5.80;2.30;;;;;;;20.02;47.92;102104.50;5026149;28;20085;-62
2022/08/29 01:29:51;;;;;;;5.68;2.55;;;;;;;20.03;48.04;102108.88;5041022;28;20064;-61
2022/08/29 01:32:18;;;;;;;5.28;2.35;;;;;;;20.01;47.86;102102.84;5045705;28;20081;-62
2022/08/29 01:34:46;;;;;;;4.78;2.15;;;;;;;20.00;47.94;102101.19;5045020;28;20057;-62
2022/08/29 01:37:16;;;;;;;5.47;2.20;;;;;;;19.99;47.92;102097.66;5045722;28;20081;-62
2022/08/29 01:39:44;;;;;;;4.65;2.38;;;;;;;19.98;47.92;102097.91;5045874;28;20076;-62
2022/08/29 01:42:16;;;;;;;3.63;2.15;;;;;;;19.96;47.76;102089.97;5045663;28;20046;-62
2022/08/29 01:44:49;;;;;;;6.30;2.13;;;;;;;19.94;47.89;102092.13;5026767;28;20054;-62
2022/08/29 01:47:19;;;;;;;6.25;2.55;;;;;;;19.94;47.87;102094.84;5025847;28;20069;-62
2022/08/29 01:49:47;;;;;;;5.60;2.90;;;;;;;19.93;47.95;102093.19;5025489;28;20089;-62
2022/08/29 01:52:15;;;;;;;3.10;2.10;;;;;;;19.92;47.96;102088.81;5027542;28;20063;-62
2022/08/29 01:54:44;;;;;;;6.93;2.45;;;;;;;19.91;47.90;102086.34;5029801;28;20053;-62
2022/08/29 01:57:15;;;;;;;5.28;2.15;;;;;;;19.89;48.01;102097.53;5029613;28;20053;-62
2022/08/29 01:59:44;;;;;;;4.63;2.15;;;;;;;19.88;47.94;102106.78;5029984;28;20050;-62
2022/08/29 02:02:16;;;;;;;7.78;2.63;;;;;;;19.87;48.02;102105.13;5029654;28;20050;-62
2022/08/29 02:04:45;;;;;;;7.53;2.72;;;;;;;19.84;48.10;102105.63;5029385;28;20058;-62
2022/08/29 02:07:16;;;;;;;5.18;2.50;;;;;;;19.84;48.17;102108.38;5029478;28;20042;-62
2022/08/29 02:09:44;;;;;;;7.25;2.35;;;;;;;19.82;48.12;102100.44;5043215;28;20057;-62
2022/08/29 02:12:13;;;;;;;5.55;2.25;;;;;;;19.81;48.16;102100.69;5049292;28;20053;-62
2022/08/29 02:14:42;;;;;;;5.03;2.10;;;;;;;19.80;48.13;102101.75;5049341;28;20075;-62
2022/08/29 02:17:10;;;;;;;5.03;2.40;;;;;;;19.79;48.25;102100.13;5047735;28;20148;-62
2022/08/29 02:19:38;;;;;;;4.72;2.65;;;;;;;19.77;48.16;102105.81;5048924;28;20050;-61
2022/08/29 02:22:07;;;;;;;5.65;2.72;;;;;;;19.76;48.25;102100.63;5049285;28;20081;-62
2022/08/29 02:24:35;;;;;;;4.32;2.17;;;;;;;19.75;48.40;102107.97;5036529;28;20527;-62
2022/08/29 02:27:04;;;;;;;4.53;2.25;;;;;;;19.72;48.40;102102.19;5029274;28;20054;-62
2022/08/29 02:29:31;;;;;;;7.32;2.15;;;;;;;19.71;48.58;102106.00;5029145;28;20057;-62
2022/08/29 02:32:07;;;;;;;5.07;2.17;;;;;;;19.71;48.19;102120.47;5029058;28;20049;-62
2022/08/29 02:34:36;;;;;;;4.65;2.40;;;;;;;19.69;48.47;102119.91;5043098;28;20057;-62
2022/08/29 02:37:05;;;;;;;5.78;3.10;;;;;;;19.69;48.49;102124.53;5041193;28;20046;-62
2022/08/29 02:39:33;;;;;;;5.57;2.72;;;;;;;19.68;48.55;102120.97;5029083;28;20049;-62
2022/08/29 02:42:01;;;;;;;6.47;2.03;;;;;;;19.67;48.33;102122.06;5040265;28;20053;-62
2022/08/29 02:44:28;;;;;;;3.92;1.95;;;;;;;19.67;48.57;102126.69;5048846;28;20092;-62
2022/08/29 02:46:56;;;;;;;3.55;2.00;;;;;;;19.66;48.64;102125.03;5048471;28;20068;-62
2022/08/29 02:49:25;;;;;;;4.95;2.40;;;;;;;19.65;48.34;102134.28;5048403;28;20049;-62
2022/08/29 02:51:53;;;;;;;3.30;1.95;;;;;;;19.57;48.59;102124.63;5047484;28;20045;-62
2022/08/29 02:54:22;;;;;;;5.28;2.20;;;;;;;19.61;48.59;102127.69;5048579;28;20084;-61
2022/08/29 02:56:50;;;;;;;5.05;2.45;;;;;;;19.63;48.70;102125.53;5048284;28;20085;-62
2022/08/29 02:59:18;;;;;;;5.97;2.47;;;;;;;19.60;48.73;102120.56;5047808;28;20049;-62
2022/08/29 03:01:45;;;;;;;3.55;2.00;;;;;;;19.60;48.75;102118.69;5048371;28;20480;-62
2022/08/29 03:04:13;;;;;;;4.70;2.15;;;;;;;19.59;48.54;102116.19;5047801;28;20049;-62
2022/08/29 03:06:42;;;;;;;3.78;2.08;;;;;;;19.57;48.60;102119.19;5046522;28;20049;-62
2022/08/29 03:09:10;;;;;;;6.82;2.17;;;;;;;19.57;48.72;102115.63;5028364;28;20077;-62
2022/08/29 03:11:38;;;;;;;5.70;2.78;;;;;;;19.55;48.69;102118.59;5028363;28;20061;-62
2022/08/29 03:14:05;;;;;;;5.65;2.63;;;;;;;19.55;48.94;102117.78;5028505;28;20050;-62
2022/08/29 03:16:33;;;;;;;5.43;2.50;;;;;;;19.54;48.97;102119.69;5028080;28;20054;-62
2022/08/29 03:19:01;;;;;;;4.50;2.40;;;;;;;19.52;48.91;102121.84;5027889;28;20085;-62
2022/08/29 03:21:28;;;;;;;5.55;2.67;;;;;;;19.50;49.01;102113.03;5028130;28;20073;-62
2022/08/29 03:23:58;;;;;;;6.10;2.70;;;;;;;19.49;48.99;102108.66;5044753;28;20523;-62
2022/08/29 03:26:26;;;;;;;6.60;2.35;;;;;;;19.48;48.80;102110.56;5048000;28;20083;-62
2022/08/29 03:28:53;;;;;;;4.40;2.60;;;;;;;19.47;48.95;102105.38;5047885;28;20092;-62
2022/08/29 03:31:21;;;;;;;4.88;2.47;;;;;;;19.41;48.96;102099.00;5035799;28;20085;-62
2022/08/29 03:33:49;;;;;;;5.47;2.28;;;;;;;19.43;49.20;102107.75;5027676;28;20053;-62
2022/08/29 03:36:17;;;;;;;6.40;2.42;;;;;;;19.43;49.07;102096.03;5027901;28;20056;-62
2022/08/29 03:38:46;;;;;;;12.35;2.72;;;;;;;19.40;49.02;102100.09;5027792;28;20056;-62
2022/08/29 03:41:22;;;;;;;8.23;2.38;;;;;;;19.38;49.24;102095.97;5028078;28;20045;-62
2022/08/29 03:43:49;;;;;;;7.70;3.23;;;;;;;19.37;49.39;102089.69;5028136;28;20050;-62
2022/08/29 03:46:17;;;;;;;5.05;2.63;;;;;;;19.29;49.31;102068.28;5027611;28;20050;-62
2022/08/29 03:48:45;;;;;;;4.95;2.53;;;;;;;19.35;49.29;102075.47;5027533;28;20060;-62
2022/08/29 03:51:13;;;;;;;6.13;3.17;;;;;;;19.32;49.36;102065.06;5027558;28;20049;-62
2022/08/29 03:53:41;;;;;;;4.78;2.70;;;;;;;19.31;49.42;102068.03;5027613;28;20085;-62
2022/08/29 03:56:09;;;;;;;7.43;2.88;;;;;;;19.30;49.22;102063.66;5027527;28;20460;-62
2022/08/29 03:58:45;;;;;;;5.18;2.83;;;;;;;19.28;49.49;102060.38;5027659;28;20049;-62
2022/08/29 04:01:21;;;;;;;5.88;2.88;;;;;;;19.26;49.74;102068.78;5027843;28;20096;-62
2022/08/29 04:03:49;;;;;;;4.72;2.67;;;;;;;19.24;49.67;102065.50;5027555;28;20054;-62
2022/08/29 04:06:17;;;;;;;6.40;2.83;;;;;;;19.23;49.58;102071.19;5027295;28;20081;-61
2022/08/29 04:08:46;;;;;;;8.85;2.83;;;;;;;19.22;49.78;102075.81;5027320;28;20053;-62
2022/08/29 04:11:15;;;;;;;4.43;2.58;;;;;;;19.20;49.84;102077.97;5026934;28;20058;-61
2022/08/29 04:13:43;;;;;;;5.43;1.98;;;;;;;19.19;49.94;102076.31;5027224;28;20085;-62
2022/08/29 04:16:14;;;;;;;6.47;2.40;;;;;;;19.17;49.91;102087.47;5032823;28;20056;-61
2022/08/29 04:18:42;;;;;;;5.05;2.28;;;;;;;19.16;49.71;102085.81;5046751;28;20049;-61
2022/08/29 04:21:10;;;;;;;5.13;2.42;;;;;;;19.15;49.94;102086.91;5028278;28;20051;-62
2022/08/29 04:23:39;;;;;;;4.80;2.58;;;;;;;19.12;49.88;102083.84;5026932;28;20050;-62
2022/08/29 04:26:13;;;;;;;7.45;2.65;;;;;;;19.12;49.84;102076.50;5027405;28;20049;-62
2022/08/29 04:29:01;;;;;;;7.75;2.80;;;;;;;19.12;49.66;102083.84;5026858;28;20113;-62
2022/08/29 04:31:30;;;;;;;6.25;2.58;;;;;;;19.12;50.07;102090.13;5027198;28;20066;-62
2022/08/29 04:33:58;;;;;;;6.00;2.20;;;;;;;19.11;49.72;102088.47;5026055;28;20046;-62
2022/08/29 04:36:26;;;;;;;6.90;2.15;;;;;;;19.03;49.68;102066.28;5026454;28;20057;-62
2022/08/29 04:38:54;;;;;;;6.32;2.70;;;;;;;19.09;50.00;102074.25;5026176;28;20060;-62
2022/08/29 04:41:22;;;;;;;4.22;2.15;;;;;;;19.08;49.83;102088.13;5026140;28;20077;-62
2022/08/29 04:43:50;;;;;;;7.05;2.70;;;;;;;19.08;49.98;102085.41;5026191;28;20089;-62
2022/08/29 04:46:18;;;;;;;5.03;2.58;;;;;;;19.07;50.20;102092.75;5045430;28;20072;-62
2022/08/29 04:48:52;;;;;;;5.13;2.80;;;;;;;19.06;49.84;102085.69;5031958;28;20057;-62
2022/08/29 04:51:22;;;;;;;3.17;1.90;;;;;;;19.06;49.91;102093.03;5025506;28;20618;-62
2022/08/29 04:53:51;;;;;;;5.78;2.53;;;;;;;19.03;50.13;102097.09;5025675;28;20053;-62
2022/08/29 04:56:20;;;;;;;10.38;3.17;;;;;;;19.03;50.13;102104.44;5026044;28;20050;-62
2022/08/29 04:58:49;;;;;;;5.78;2.40;;;;;;;19.03;49.93;102104.44;5026114;28;20089;-62
2022/08/29 05:01:19;;;;;;;7.25;2.45;;;;;;;19.01;49.87;102109.31;5026597;28;20088;-62
2022/08/29 05:03:48;;;;;;;9.43;3.47;;;;;;;19.01;49.96;102112.03;5026528;28;20508;-62
2022/08/29 05:06:20;;;;;;;5.47;2.30;;;;;;;18.98;50.13;102104.34;5026044;28;20077;-62
2022/08/29 05:08:49;;;;;;;6.65;2.72;;;;;;;18.99;49.96;102101.38;5036457;28;20045;-62
2022/08/29 05:11:28;;;;;;;6.63;2.92;;;;;;;18.99;49.78;102098.66;5040414;28;20061;-62
2022/08/29 05:13:56;;;;;;;7.35;2.75;;;;;;;19.00;50.00;102104.94;5026333;28;20054;-62
2022/08/29 05:16:24;;;;;;;8.55;2.60;;;;;;;18.99;49.75;102101.38;5026199;28;20449;-62
2022/08/29 05:18:52;;;;;;;8.63;3.20;;;;;;;18.97;49.65;102103.53;5025928;28;20058;-62
2022/08/29 05:21:26;;;;;;;7.47;3.38;;;;;;;18.96;49.75;102106.50;5025707;28;20419;-62
2022/08/29 05:23:55;;;;;;;7.53;3.15;;;;;;;18.93;50.00;102101.53;5026006;28;20061;-61
2022/08/29 05:26:23;;;;;;;6.55;3.17;;;;;;;18.95;49.86;102122.03;5026296;28;20048;-62
2022/08/29 05:28:51;;;;;;;5.78;3.35;;;;;;;18.94;49.79;102125.00;5025795;28;20053;-62
2022/08/29 05:31:20;;;;;;;6.40;3.10;;;;;;;18.94;49.90;102130.44;5026038;28;20088;-62
2022/08/29 05:33:49;;;;;;;7.53;2.88;;;;;;;18.91;49.99;102137.19;5031628;28;20045;-61
2022/08/29 05:36:17;;;;;;;8.88;3.38;;;;;;;18.92;49.71;102136.13;5045435;28;20050;-62
2022/08/29 05:38:46;;;;;;;6.60;3.30;;;;;;;18.92;49.94;102136.13;5045295;28;20053;-61
2022/08/29 05:41:14;;;;;;;6.32;3.15;;;;;;;18.89;49.95;102136.63;5045688;28;20136;-62
2022/08/29 05:43:42;;;;;;;12.00;4.13;;;;;;;18.90;50.04;102135.56;5033706;28;20081;-62
2022/08/29 05:46:10;;;;;;;6.55;3.38;;;;;;;18.90;49.72;102151.91;5025908;28;20081;-61
2022/08/29 05:48:41;;;;;;;6.30;3.30;;;;;;;18.90;49.86;102148.34;5025400;28;20112;-62
2022/08/29 05:51:15;;;;;;;10.63;3.38;;;;;;;18.88;49.91;102145.03;5025530;28;20069;-61
2022/08/29 05:53:43;;;;;;;7.38;2.95;;;;;;;18.88;49.91;102136.88;5025973;28;20053;-61
2022/08/29 05:56:12;;;;;;;6.82;3.88;;;;;;;18.88;49.98;102134.16;5025843;28;20065;-62
2022/08/29 05:58:40;;;;;;;5.30;2.97;;;;;;;18.88;49.88;102139.59;5025692;28;20084;-61
2022/08/29 06:01:08;;;;;;;8.05;3.72;;;;;;;18.86;49.96;102142.56;5040116;28;20053;-61
2022/08/29 06:03:35;;;;;;;7.90;3.97;;;;;;;18.87;49.98;102144.22;5040329;28;20041;-62
2022/08/29 06:06:03;;;;;;;9.00;3.83;;;;;;;18.87;49.95;102148.84;5025228;28;20060;-61
2022/08/29 06:08:31;;;;;;;7.00;4.03;;;;;;;18.87;50.03;102146.94;5025412;28;20050;-61
2022/08/29 06:10:59;;;;;;;10.45;4.40;;;;;;;18.85;50.02;102149.09;5025273;28;20054;-61
2022/08/29 06:13:28;;;;;;;6.30;3.65;;;;;;;18.86;50.02;102153.47;5025571;28;20072;-61
2022/08/29 06:15:56;;;;;;;6.38;3.85;;;;;;;18.85;50.07;102152.63;5025667;28;20050;-61
2022/08/29 06:18:24;;;;;;;8.43;3.53;;;;;;;18.87;50.04;102146.94;5025267;28;20053;-61
2022/08/29 06:21:04;;;;;;;8.93;3.75;;;;;;;18.87;49.96;102157.00;5025311;28;20443;-61
2022/08/29 06:23:32;;;;;;;9.73;3.50;;;;;;;18.86;50.02;102156.19;5025404;28;20092;-61
2022/08/29 06:26:00;;;;;;;8.02;3.85;;;;;;;18.85;49.92;102149.91;5025832;28;20057;-61
2022/08/29 06:28:29;;;;;;;9.18;4.00;;;;;;;18.83;49.88;102157.50;5025328;28;20050;-61
2022/08/29 06:31:04;;;;;;;8.73;4.50;;;;;;;18.86;49.80;102158.91;5025743;28;20050;-62
2022/08/29 06:33:32;;;;;;;9.63;4.15;;;;;;;18.85;49.69;102151.81;5025291;28;20053;-62
2022/08/29 06:35:59;;;;;;;7.88;4.05;;;;;;;18.88;49.80;102155.94;5025301;28;20054;-61
2022/08/29 06:38:27;;;;;;;11.73;4.65;;;;;;;18.87;49.79;102162.47;5026909;28;20442;-62
2022/08/29 06:40:55;;;;;;;7.82;3.67;;;;;;;18.87;49.64;102163.28;5028963;28;20061;-61
2022/08/29 06:43:23;;;;;;;9.65;4.35;;;;;;;18.89;49.53;102165.75;5029164;28;20105;-61
2022/08/29 06:45:52;;;;;;;8.43;4.25;;;;;;;18.89;49.71;102169.31;5028907;28;20084;-62
2022/08/29 06:48:20;;;;;;;9.40;4.20;;;;;;;18.90;49.74;102170.13;5028661;28;20050;-61
2022/08/29 06:50:47;;;;;;;8.70;4.30;;;;;;;18.92;49.65;102173.44;5028451;28;20058;-62
2022/08/29 06:53:15;;;;;;;7.88;4.05;;;;;;;18.93;49.56;102169.66;5028632;28;20046;-62
2022/08/29 06:56:03;;;;;;;9.05;4.75;;;;;;;18.94;49.38;102172.13;5028729;28;20085;-62
2022/08/29 06:58:32;;;;;;;8.40;4.20;;;;;;;18.95;49.25;102170.22;5028499;28;20197;-62
2022/08/29 07:01:05;;;;;;;11.15;5.60;;;;;;;18.94;49.45;102174.03;5028717;28;20069;-62
2022/08/29 07:03:33;;;;;;;10.70;4.07;;;;;;;18.94;49.46;102179.47;5028723;28;20065;-62
2022/08/29 07:06:01;;;;;;;8.30;4.50;;;;;;;18.93;49.39;102181.38;5028293;28;20084;-62
2022/08/29 07:08:29;;;;;;;11.70;4.40;;;;;;;18.86;49.41;102161.63;5028453;28;20085;-62
2022/08/29 07:10:57;;;;;;;11.98;5.00;;;;;;;18.94;49.20;102165.84;5028477;28;20065;-62
2022/08/29 07:13:25;;;;;;;10.30;4.57;;;;;;;18.96;49.35;102169.16;5028230;28;20507;-62
2022/08/29 07:15:53;;;;;;;9.90;4.90;;;;;;;18.97;49.17;102173.53;5028280;28;20081;-62
2022/08/29 07:18:22;;;;;;;12.45;5.50;;;;;;;18.99;49.28;102172.22;5028018;28;20049;-62
2022/08/29 07:20:50;;;;;;;12.82;5.28;;;;;;;19.00;49.38;102173.03;5027899;28;20077;-61
2022/08/29 07:23:18;;;;;;;14.32;5.82;;;;;;;19.01;49.17;102175.53;5028113;28;20502;-60
2022/08/29 07:25:45;;;;;;;10.60;5.65;;;;;;;19.04;48.90;102169.59;5028114;28;20049;-62
2022/08/29 07:28:13;;;;;;;9.48;5.60;;;;;;;19.06;49.05;102167.44;5028315;28;20077;-62
2022/08/29 07:30:41;;;;;;;10.05;5.03;;;;;;;19.09;48.77;102174.25;5028146;28;20057;-62
2022/08/29 07:33:09;;;;;;;10.57;5.05;;;;;;;19.10;48.69;102168.56;5028145;28;20046;-61
2022/08/29 07:35:38;;;;;;;9.48;5.03;;;;;;;19.12;48.64;102165.59;5027611;28;20058;-61
2022/08/29 07:38:06;;;;;;;9.38;4.93;;;;;;;19.15;48.66;102156.94;5027875;28;20050;-61
2022/08/29 07:40:34;;;;;;;12.95;5.28;;;;;;;19.18;48.38;102150.97;5027839;28;20050;-61
2022/08/29 07:43:02;;;;;;;8.30;4.70;;;;;;;19.19;48.52;102158.91;5028198;28;20068;-61
2022/08/29 07:45:30;;;;;;;9.88;4.82;;;;;;;19.21;48.26;102163.28;5027808;28;20515;-61
2022/08/29 07:47:57;;;;;;;10.35;4.82;;;;;;;19.22;48.20;102159.50;5027440;28;20508;-61
2022/08/29 07:50:25;;;;;;;11.50;5.35;;;;;;;19.22;48.22;102165.75;5026250;28;20049;-61
2022/08/29 07:52:56;;;;;;;9.23;4.63;;;;;;;19.23;48.14;102156.53;5027867;28;20056;-61
2022/08/29 07:55:24;;;;;;;12.25;5.38;;;;;;;19.23;48.18;102159.25;5027815;28;20104;-61
2022/08/29 07:57:52;;;;;;;11.75;4.40;;;;;;;19.24;48.06;102160.91;5027490;28;20081;-61
2022/08/29 08:00:21;;;;;;;8.38;4.15;;;;;;;19.24;48.31;102154.63;5027667;28;20050;-61
2022/08/29 08:02:48;;;;;;;8.13;4.43;;;;;;;19.23;48.08;102151.06;5027724;28;20100;-61
2022/08/29 08:05:16;;;;;;;8.82;4.68;;;;;;;19.16;48.18;102142.22;5027022;28;20089;-61
2022/08/29 08:07:45;;;;;;;9.07;4.65;;;;;;;19.24;48.01;102162.78;5027473;28;20488;-62
2022/08/29 08:10:16;;;;;;;11.38;5.45;;;;;;;19.23;48.17;102156.53;5032815;28;20061;-61
2022/08/29 08:12:44;;;;;;;8.82;3.92;;;;;;;19.23;47.94;102170.16;5027222;28;20057;-61
2022/08/29 08:15:13;;;;;;;7.80;4.35;;;;;;;19.23;47.98;102163.88;5026962;28;20404;-61
2022/08/29 08:17:40;;;;;;;9.30;4.45;;;;;;;19.23;47.78;102161.16;5032708;28;20049;-61
2022/08/29 08:20:11;;;;;;;7.18;3.63;;;;;;;19.22;48.01;102157.59;5046778;28;20052;-61
2022/08/29 08:22:39;;;;;;;7.47;4.10;;;;;;;19.22;47.83;102157.59;5046922;28;20076;-61
2022/08/29 08:25:07;;;;;;;5.95;3.92;;;;;;;19.21;47.63;102152.38;5045844;28;20100;-61
2022/08/29 08:27:37;;;;;;;7.80;3.97;;;;;;;19.23;47.60;102158.41;5046986;28;20052;-61
2022/08/29 08:30:11;;;;;;;10.75;3.80;;;;;;;19.23;47.46;102167.41;5046657;28;20050;-61
2022/08/29 08:32:39;;;;;;;7.15;3.53;;;;;;;19.22;47.23;102171.22;5046825;28;20054;-61
2022/08/29 08:35:14;;;;;;;11.35;4.50;;;;;;;19.22;47.31;102160.31;5026580;28;20050;-61
2022/08/29 08:37:43;;;;;;;8.88;3.63;;;;;;;19.23;47.10;102161.97;5035264;28;20049;-61
2022/08/29 08:40:17;;;;;;;8.25;3.58;;;;;;;19.23;47.22;102163.88;5046233;28;20053;-61
2022/08/29 08:42:48;;;;;;;6.63;3.67;;;;;;;19.24;47.22;102154.63;5036482;28;20073;-61
2022/08/29 08:45:18;;;;;;;9.65;4.20;;;;;;;19.25;47.15;102153.53;5026976;28;20052;-61
2022/08/29 08:47:50;;;;;;;11.50;3.67;;;;;;;19.25;47.15;102148.91;5045306;28;20060;-61
2022/08/29 08:50:25;;;;;;;7.18;3.58;;;;;;;19.26;47.28;102145.13;5046080;28;20088;-61
2022/08/29 08:52:58;;;;;;;7.80;4.13;;;;;;;19.28;47.25;102148.44;5031322;28;20523;-61
2022/08/29 08:55:33;;;;;;;6.55;3.40;;;;;;;19.30;47.46;102150.91;5026451;28;20125;-61
2022/08/29 08:58:10;;;;;;;7.60;3.90;;;;;;;19.32;47.49;102162.38;5029933;28;20084;-61
2022/08/29 09:00:44;;;;;;;7.60;3.25;;;;;;;19.33;47.70;102151.22;5046001;28;20280;-61
2022/08/29 09:03:47;;;;;;;6.32;3.53;;;;;;;19.34;47.42;102163.78;5045109;28;20045;-61
2022/08/29 09:06:30;;;;;;;7.95;3.67;;;;;;;19.36;47.60;102164.38;5045731;28;20161;-61
2022/08/29 09:09:09;;;;;;;6.93;3.28;;;;;;;19.38;47.83;102155.94;5045874;28;20393;-61
2022/08/29 09:11:50;;;;;;;5.93;3.35;;;;;;;19.40;47.66;102157.34;5044867;28;20388;-61
2022/08/29 09:14:33;;;;;;;5.45;2.88;;;;;;;19.41;47.72;102164.44;5045807;28;20476;-61
2022/08/29 09:17:03;;;;;;;6.60;3.97;;;;;;;19.43;47.93;102169.66;5045787;28;20053;-60
2022/08/29 09:19:31;;;;;;;6.72;3.30;;;;;;;19.45;47.89;102173.78;5045118;28;20057;-60
2022/08/29 09:22:08;;;;;;;5.38;3.17;;;;;;;19.43;48.04;102173.19;5046022;28;20077;-60
2022/08/29 09:24:42;;;;;;;5.68;2.80;;;;;;;19.49;47.95;102176.84;5029480;28;20088;-60
2022/08/29 09:27:17;;;;;;;5.50;2.90;;;;;;;19.49;47.75;102179.56;5026312;28;20456;-61
2022/08/29 09:29:48;;;;;;;6.13;2.90;;;;;;;19.49;47.47;102183.13;5025873;28;20092;-63
2022/08/29 09:32:17;;;;;;;7.50;3.35;;;;;;;19.47;47.57;102185.25;5026422;28;20060;-60
2022/08/29 09:34:49;;;;;;;7.60;2.50;;;;;;;19.51;47.64;102182.88;5025581;28;20105;-61
2022/08/29 09:37:36;;;;;;;6.25;3.10;;;;;;;19.48;47.40;102167.81;5026312;28;20141;-61
2022/08/29 09:40:09;;;;;;;5.32;3.05;;;;;;;19.53;47.51;102177.19;5025938;28;20108;-61
2022/08/29 09:42:40;;;;;;;5.43;2.90;;;;;;;19.52;47.52;102170.91;5026267;28;20041;-60
2022/08/29 09:45:17;;;;;;;7.32;2.58;;;;;;;19.53;47.34;102166.28;5026110;28;20074;-60
2022/08/29 09:47:45;;;;;;;6.97;2.90;;;;;;;19.55;47.60;102177.78;5025542;28;20092;-59
2022/08/29 09:50:23;;;;;;;6.07;3.05;;;;;;;19.55;47.75;102170.41;5025330;28;20057;-60
2022/08/29 09:52:52;;;;;;;8.93;3.00;;;;;;;19.53;47.91;102169.00;5026226;28;20077;-60
2022/08/29 09:55:24;;;;;;;5.65;2.90;;;;;;;19.59;47.46;102171.56;5025682;28;20069;-60
2022/08/29 09:57:56;;;;;;;6.72;2.85;;;;;;;19.59;47.21;102159.84;5025899;28;20058;-60
2022/08/29 10:00:28;;;;;;;6.32;2.63;;;;;;;19.61;47.49;102161.22;5025627;28;20061;-60
2022/08/29 10:02:59;;;;;;;7.38;3.20;;;;;;;19.62;47.39;102148.44;5036909;28;20060;-60
2022/08/29 10:05:33;;;;;;;6.20;2.83;;;;;;;19.64;47.76;102149.00;5044013;28;20041;-60
2022/08/29 10:08:03;;;;;;;6.05;3.05;;;;;;;19.57;47.44;102149.19;5045775;28;20053;-60
2022/08/29 10:10:34;;;;;;;6.50;3.38;;;;;;;19.68;47.34;102166.50;5045179;28;20061;-61
2022/08/29 10:13:09;;;;;;;5.82;2.38;;;;;;;19.69;47.28;102170.91;5046529;28;20050;-60
2022/08/29 10:15:44;;;;;;;5.28;2.72;;;;;;;19.73;47.70;102163.88;5034443;28;20100;-60
2022/08/29 10:18:23;;;;;;;5.97;2.80;;;;;;;19.75;47.33;102164.44;5028958;28;20054;-61
2022/08/29 10:21:04;;;;;;;5.15;2.38;;;;;;;19.78;47.37;102163.94;5028989;28;20053;-60
2022/08/29 10:23:43;;;;;;;5.55;2.97;;;;;;;19.80;47.21;102156.31;5029619;28;20057;-60
2022/08/29 10:26:27;;;;;;;6.15;2.95;;;;;;;19.80;47.00;102154.41;5029455;28;20045;-61
2022/08/29 10:29:03;;;;;;;7.95;2.65;;;;;;;19.82;47.11;102156.91;5029226;28;20050;-61
2022/08/29 10:31:37;;;;;;;5.05;2.92;;;;;;;19.84;46.91;102152.03;5044373;28;20056;-61
2022/08/29 10:34:21;;;;;;;7.65;3.10;;;;;;;19.85;46.65;102150.94;5041325;28;20056;-61
2022/08/29 10:36:57;;;;;;;5.35;3.22;;;;;;;19.86;46.74;102157.22;5028910;28;20057;-61
2022/08/29 10:39:35;;;;;;;7.75;2.90;;;;;;;19.87;46.89;102146.06;5028927;28;20092;-61
2022/08/29 10:42:08;;;;;;;6.40;2.47;;;;;;;19.91;47.52;102149.94;5029056;28;20054;-60
2022/08/29 10:45:03;;;;;;;7.68;3.25;;;;;;;19.95;47.59;102145.63;5046638;28;20045;-61
2022/08/29 10:47:38;;;;;;;6.50;2.70;;;;;;;20.01;47.38;102144.59;5048244;28;20490;-61
2022/08/29 10:50:17;;;;;;;6.32;2.83;;;;;;;20.04;46.71;102144.09;5047948;28;20107;-61
2022/08/29 10:53:10;;;;;;;8.05;3.08;;;;;;;20.07;46.63;102142.78;5028841;28;20054;-61
2022/08/29 10:55:47;;;;;;;4.95;2.60;;;;;;;20.09;47.03;102127.78;5028722;28;20041;-60
2022/08/29 10:58:30;;;;;;;8.30;3.30;;;;;;;20.13;47.67;102126.19;5028902;28;20054;-61
2022/08/29 11:01:05;;;;;;;7.78;2.80;;;;;;;20.20;47.60;102128.75;5028603;28;20554;-61
2022/08/29 11:03:42;;;;;;;5.78;2.95;;;;;;;20.24;47.43;102124.41;5030736;28;20118;-61
2022/08/29 11:06:22;;;;;;;7.00;2.75;;;;;;;20.27;47.24;102126.63;5048014;28;20162;-60
2022/08/29 11:08:55;;;;;;;6.38;3.00;;;;;;;20.30;46.37;102128.03;5048201;28;20117;-61
2022/08/29 11:11:25;;;;;;;7.63;3.17;;;;;;;20.30;46.29;102117.94;5048017;28;20081;-61
2022/08/29 11:13:58;;;;;;;6.88;2.88;;;;;;;20.33;46.13;102116.59;5035437;28;20058;-61
2022/08/29 11:16:38;;;;;;;7.10;2.75;;;;;;;20.34;46.36;102118.25;5045054;28;20086;-61
2022/08/29 11:19:12;;;;;;;5.60;2.97;;;;;;;20.29;46.43;102099.09;5047862;28;20045;-61
2022/08/29 11:21:46;;;;;;;5.10;3.05;;;;;;;20.39;45.59;102110.16;5040815;28;20042;-61
2022/08/29 11:24:16;;;;;;;6.90;3.28;;;;;;;20.40;45.94;102114.53;5028073;28;20053;-61
2022/08/29 11:26:54;;;;;;;5.90;2.60;;;;;;;20.43;45.98;102103.91;5028307;28;20127;-61
2022/08/29 11:29:33;;;;;;;6.28;2.60;;;;;;;20.47;46.12;102096.03;5042102;28;20049;-61
2022/08/29 11:32:07;;;;;;;4.82;2.60;;;;;;;20.53;46.52;102092.28;5047906;28;20045;-61
2022/08/29 11:34:48;;;;;;;6.53;2.92;;;;;;;20.57;46.79;102090.66;5047343;28;20491;-61
2022/08/29 11:37:32;;;;;;;4.60;2.33;;;;;;;20.65;46.68;102089.38;5027997;28;20054;-60
2022/08/29 11:40:06;;;;;;;4.45;3.08;;;;;;;20.69;45.93;102090.50;5027889;28;20061;-61
2022/08/29 11:42:38;;;;;;;6.05;2.78;;;;;;;20.71;45.42;102082.88;5027809;28;20073;-61
2022/08/29 11:45:26;;;;;;;6.07;3.10;;;;;;;20.73;45.53;102086.19;5027895;28;20069;-60